sensor_id;sensor_type;location;lat;lon;timestamp;temperature;humidity
34279;DHT22;20538;51.528;9.942;2022-12-16T00:01:54;-9.30;99.90
34279;DHT22;20538;51.528;9.942;2022-12-16T00:04:20;-9.30;99.90
34279;DHT22;20538;51.528;9.942;2022-12-16T00:06:46;-9.30;99.90
34279;DHT22;20538;51.528;9.942;2022-12-16T00:09:12;-9.40;99.90
34279;DHT22;20538;51.528;9.942;2022-12-16T00:11:37;-9.40;99.90
34279;DHT22;20538;51.528;9.942;2022-12-16T00:14:03;-9.40;99.90
34279;DHT22;20538;51.528;9.942;2022-12-16T00:16:29;-9.40;99.90
34279;DHT22;20538;51.528;9.942;2022-12-16T00:18:55;-9.50;99.90
34279;DHT22;20538;51.528;9.942;2022-12-16T00:21:21;-9.40;99.90
34279;DHT22;20538;51.528;9.942;2022-12-16T00:23:47;-9.40;99.90
34279;DHT22;20538;51.528;9.942;2022-12-16T00:26:13;-9.30;99.90
34279;DHT22;20538;51.528;9.942;2022-12-16T00:28:39;-9.30;99.90
34279;DHT22;20538;51.528;9.942;2022-12-16T00:31:05;-9.30;99.90
34279;DHT22;20538;51.528;9.942;2022-12-16T00:33:31;-9.30;99.90
34279;DHT22;20538;51.528;9.942;2022-12-16T00:36:02;-9.40;99.90
34279;DHT22;20538;51.528;9.942;2022-12-16T00:38:28;-9.40;99.90
34279;DHT22;20538;51.528;9.942;2022-12-16T00:40:53;-9.40;99.90
34279;DHT22;20538;51.528;9.942;2022-12-16T00:43:19;-9.50;99.90
34279;DHT22;20538;51.528;9.942;2022-12-16T00:45:45;-9.50;99.90
34279;DHT22;20538;51.528;9.942;2022-12-16T00:48:11;-9.50;99.90
34279;DHT22;20538;51.528;9.942;2022-12-16T00:50:37;-9.50;99.90
34279;DHT22;20538;51.528;9.942;2022-12-16T00:53:03;-9.50;99.90
34279;DHT22;20538;51.528;9.942;2022-12-16T00:55:29;-9.50;99.90
34279;DHT22;20538;51.528;9.942;2022-12-16T00:57:55;-9.60;99.90
34279;DHT22;20538;51.528;9.942;2022-12-16T01:00:21;-9.60;99.90
34279;DHT22;20538;51.528;9.942;2022-12-16T01:02:49;-9.60;99.90
34279;DHT22;20538;51.528;9.942;2022-12-16T01:05:17;-9.50;99.90
34279;DHT22;20538;51.528;9.942;2022-12-16T01:07:45;-9.50;99.90
34279;DHT22;20538;51.528;9.942;2022-12-16T01:10:12;-9.60;99.90
34279;DHT22;20538;51.528;9.942;2022-12-16T01:12:38;-9.50;99.90
34279;DHT22;20538;51.528;9.942;2022-12-16T01:15:07;-9.60;99.90
34279;DHT22;20538;51.528;9.942;2022-12-16T01:17:33;-9.60;99.90
34279;DHT22;20538;51.528;9.942;2022-12-16T01:19:59;-9.70;99.90
34279;DHT22;20538;51.528;9.942;2022-12-16T01:22:30;-9.70;99.90
34279;DHT22;20538;51.528;9.942;2022-12-16T01:24:55;-9.70;99.90
34279;DHT22;20538;51.528;9.942;2022-12-16T01:27:21;-9.80;99.90
34279;DHT22;20538;51.528;9.942;2022-12-16T01:29:47;-9.80;99.90
34279;DHT22;20538;51.528;9.942;2022-12-16T01:32:13;-9.80;99.90
34279;DHT22;20538;51.528;9.942;2022-12-16T01:34:39;-9.90;99.90
34279;DHT22;20538;51.528;9.942;2022-12-16T01:37:07;-9.90;99.90
34279;DHT22;20538;51.528;9.942;2022-12-16T01:39:34;-9.90;99.90
34279;DHT22;20538;51.528;9.942;2022-12-16T01:42:00;-9.80;99.90
34279;DHT22;20538;51.528;9.942;2022-12-16T01:44:26;-9.80;99.90
34279;DHT22;20538;51.528;9.942;2022-12-16T01:47:01;-9.80;99.90
34279;DHT22;20538;51.528;9.942;2022-12-16T01:49:42;-9.90;99.90
34279;DHT22;20538;51.528;9.942;2022-12-16T01:52:12;-10.00;99.90
34279;DHT22;20538;51.528;9.942;2022-12-16T01:54:43;-10.00;99.90
34279;DHT22;20538;51.528;9.942;2022-12-16T01:57:16;-10.00;99.90
34279;DHT22;20538;51.528;9.942;2022-12-16T01:59:46;-9.90;99.90
34279;DHT22;20538;51.528;9.942;2022-12-16T02:02:15;-9.90;99.90
34279;DHT22;20538;51.528;9.942;2022-12-16T02:04:40;-9.90;99.90
34279;DHT22;20538;51.528;9.942;2022-12-16T02:07:26;-9.90;99.90
34279;DHT22;20538;51.528;9.942;2022-12-16T02:09:53;-10.00;99.90
34279;DHT22;20538;51.528;9.942;2022-12-16T02:12:41;-9.80;99.90
34279;DHT22;20538;51.528;9.942;2022-12-16T02:15:35;-9.80;99.90
34279;DHT22;20538;51.528;9.942;2022-12-16T02:18:21;-9.90;99.90
34279;DHT22;20538;51.528;9.942;2022-12-16T02:24:05;-10.10;99.90
34279;DHT22;20538;51.528;9.942;2022-12-16T02:29:55;-10.10;99.90
34279;DHT22;20538;51.528;9.942;2022-12-16T02:35:40;-10.10;99.90
34279;DHT22;20538;51.528;9.942;2022-12-16T02:41:04;-10.20;99.90
34279;DHT22;20538;51.528;9.942;2022-12-16T02:46:16;-10.20;99.90
34279;DHT22;20538;51.528;9.942;2022-12-16T02:48:43;-10.30;99.90
34279;DHT22;20538;51.528;9.942;2022-12-16T02:51:08;-10.30;99.90
34279;DHT22;20538;51.528;9.942;2022-12-16T02:53:36;-10.30;99.90
34279;DHT22;20538;51.528;9.942;2022-12-16T02:59:16;-10.30;99.90
34279;DHT22;20538;51.528;9.942;2022-12-16T03:04:43;-10.30;99.90
34279;DHT22;20538;51.528;9.942;2022-12-16T03:07:13;-10.40;99.90
34279;DHT22;20538;51.528;9.942;2022-12-16T03:09:40;-10.40;99.90
34279;DHT22;20538;51.528;9.942;2022-12-16T03:12:12;-10.40;99.90
34279;DHT22;20538;51.528;9.942;2022-12-16T03:14:41;-10.40;99.90
34279;DHT22;20538;51.528;9.942;2022-12-16T03:17:09;-10.30;99.90
34279;DHT22;20538;51.528;9.942;2022-12-16T03:19:36;-10.30;99.90
34279;DHT22;20538;51.528;9.942;2022-12-16T03:22:12;-10.30;99.90
34279;DHT22;20538;51.528;9.942;2022-12-16T03:24:39;-10.40;99.90
34279;DHT22;20538;51.528;9.942;2022-12-16T03:33:23;-10.30;99.90
34279;DHT22;20538;51.528;9.942;2022-12-16T03:35:50;-10.30;99.90
34279;DHT22;20538;51.528;9.942;2022-12-16T03:38:19;-10.30;99.90
34279;DHT22;20538;51.528;9.942;2022-12-16T03:40:46;-10.40;99.90
34279;DHT22;20538;51.528;9.942;2022-12-16T03:43:13;-10.50;99.90
34279;DHT22;20538;51.528;9.942;2022-12-16T03:45:41;-10.50;99.90
34279;DHT22;20538;51.528;9.942;2022-12-16T03:48:09;-10.50;99.90
34279;DHT22;20538;51.528;9.942;2022-12-16T03:50:35;-10.50;99.90
34279;DHT22;20538;51.528;9.942;2022-12-16T03:53:01;-10.50;99.90
34279;DHT22;20538;51.528;9.942;2022-12-16T03:55:27;-10.60;99.90
34279;DHT22;20538;51.528;9.942;2022-12-16T03:57:53;-10.50;99.90
34279;DHT22;20538;51.528;9.942;2022-12-16T04:00:19;-10.50;99.90
34279;DHT22;20538;51.528;9.942;2022-12-16T04:02:45;-10.50;99.90
34279;DHT22;20538;51.528;9.942;2022-12-16T04:05:12;-10.50;99.90
34279;DHT22;20538;51.528;9.942;2022-12-16T04:07:37;-10.40;99.90
34279;DHT22;20538;51.528;9.942;2022-12-16T04:10:04;-10.40;99.90
34279;DHT22;20538;51.528;9.942;2022-12-16T04:12:30;-10.40;99.90
34279;DHT22;20538;51.528;9.942;2022-12-16T04:15:14;-10.40;99.90
34279;DHT22;20538;51.528;9.942;2022-12-16T04:18:14;-10.40;99.90
34279;DHT22;20538;51.528;9.942;2022-12-16T04:20:59;-10.30;99.90
34279;DHT22;20538;51.528;9.942;2022-12-16T04:23:48;-10.30;99.90
34279;DHT22;20538;51.528;9.942;2022-12-16T04:26:33;-10.30;99.90
34279;DHT22;20538;51.528;9.942;2022-12-16T04:29:21;-10.20;99.90
34279;DHT22;20538;51.528;9.942;2022-12-16T04:31:47;-10.20;99.90
34279;DHT22;20538;51.528;9.942;2022-12-16T04:34:13;-10.10;99.90
34279;DHT22;20538;51.528;9.942;2022-12-16T04:36:52;-10.00;99.90
34279;DHT22;20538;51.528;9.942;2022-12-16T04:39:36;-9.90;99.90
34279;DHT22;20538;51.528;9.942;2022-12-16T04:42:21;-9.90;99.90
34279;DHT22;20538;51.528;9.942;2022-12-16T04:45:05;-9.80;99.90
34279;DHT22;20538;51.528;9.942;2022-12-16T04:47:49;-9.70;99.90
34279;DHT22;20538;51.528;9.942;2022-12-16T04:50:33;-9.70;99.90
34279;DHT22;20538;51.528;9.942;2022-12-16T04:53:17;-9.70;99.90
34279;DHT22;20538;51.528;9.942;2022-12-16T04:56:01;-9.70;99.90
34279;DHT22;20538;51.528;9.942;2022-12-16T04:58:45;-9.90;99.90
34279;DHT22;20538;51.528;9.942;2022-12-16T05:01:29;-9.90;99.90
34279;DHT22;20538;51.528;9.942;2022-12-16T05:04:13;-9.70;99.90
34279;DHT22;20538;51.528;9.942;2022-12-16T05:06:58;-9.80;99.90
34279;DHT22;20538;51.528;9.942;2022-12-16T05:09:41;-9.80;99.90
34279;DHT22;20538;51.528;9.942;2022-12-16T05:12:25;-9.90;99.90
34279;DHT22;20538;51.528;9.942;2022-12-16T05:15:09;-9.90;99.90
34279;DHT22;20538;51.528;9.942;2022-12-16T05:17:54;-9.80;99.90
34279;DHT22;20538;51.528;9.942;2022-12-16T05:20:37;-9.80;99.90
34279;DHT22;20538;51.528;9.942;2022-12-16T05:23:24;-9.80;99.90
34279;DHT22;20538;51.528;9.942;2022-12-16T05:26:08;-9.80;99.90
34279;DHT22;20538;51.528;9.942;2022-12-16T05:28:52;-9.80;99.90
34279;DHT22;20538;51.528;9.942;2022-12-16T05:31:36;-9.90;99.90
34279;DHT22;20538;51.528;9.942;2022-12-16T05:34:21;-9.90;99.90
34279;DHT22;20538;51.528;9.942;2022-12-16T05:37:06;-9.90;99.90
34279;DHT22;20538;51.528;9.942;2022-12-16T05:39:50;-9.90;99.90
34279;DHT22;20538;51.528;9.942;2022-12-16T05:42:34;-9.90;99.90
34279;DHT22;20538;51.528;9.942;2022-12-16T05:45:18;-10.00;99.90
34279;DHT22;20538;51.528;9.942;2022-12-16T05:48:02;-10.00;99.90
34279;DHT22;20538;51.528;9.942;2022-12-16T05:50:46;-10.00;99.90
34279;DHT22;20538;51.528;9.942;2022-12-16T05:53:30;-10.10;99.90
34279;DHT22;20538;51.528;9.942;2022-12-16T05:56:14;-10.10;99.90
34279;DHT22;20538;51.528;9.942;2022-12-16T05:58:58;-10.20;99.90
34279;DHT22;20538;51.528;9.942;2022-12-16T06:01:42;-10.20;99.90
34279;DHT22;20538;51.528;9.942;2022-12-16T06:04:26;-10.20;99.90
34279;DHT22;20538;51.528;9.942;2022-12-16T06:07:10;-10.20;99.90
34279;DHT22;20538;51.528;9.942;2022-12-16T06:09:54;-10.30;99.90
34279;DHT22;20538;51.528;9.942;2022-12-16T06:12:38;-10.40;99.90
34279;DHT22;20538;51.528;9.942;2022-12-16T06:15:23;-10.40;99.90
34279;DHT22;20538;51.528;9.942;2022-12-16T06:18:07;-10.50;99.90
34279;DHT22;20538;51.528;9.942;2022-12-16T06:20:51;-10.40;99.90
34279;DHT22;20538;51.528;9.942;2022-12-16T06:23:35;-10.50;99.90
34279;DHT22;20538;51.528;9.942;2022-12-16T06:26:19;-10.40;99.90
34279;DHT22;20538;51.528;9.942;2022-12-16T06:29:03;-10.40;99.90
34279;DHT22;20538;51.528;9.942;2022-12-16T06:31:47;-10.20;99.90
34279;DHT22;20538;51.528;9.942;2022-12-16T06:34:31;-10.20;99.90
34279;DHT22;20538;51.528;9.942;2022-12-16T06:37:15;-10.20;99.90
34279;DHT22;20538;51.528;9.942;2022-12-16T06:40:01;-10.30;99.90
34279;DHT22;20538;51.528;9.942;2022-12-16T06:42:45;-10.20;99.90
34279;DHT22;20538;51.528;9.942;2022-12-16T06:45:29;-10.30;99.90
34279;DHT22;20538;51.528;9.942;2022-12-16T06:48:13;-10.30;99.90
34279;DHT22;20538;51.528;9.942;2022-12-16T06:50:57;-10.30;99.90
34279;DHT22;20538;51.528;9.942;2022-12-16T06:53:41;-10.30;99.90
34279;DHT22;20538;51.528;9.942;2022-12-16T06:56:25;-10.30;99.90
34279;DHT22;20538;51.528;9.942;2022-12-16T06:59:09;-10.20;99.90
34279;DHT22;20538;51.528;9.942;2022-12-16T07:01:53;-10.20;99.90
34279;DHT22;20538;51.528;9.942;2022-12-16T07:04:38;-10.20;99.90
34279;DHT22;20538;51.528;9.942;2022-12-16T07:07:21;-10.10;99.90
34279;DHT22;20538;51.528;9.942;2022-12-16T07:10:06;-10.20;99.90
34279;DHT22;20538;51.528;9.942;2022-12-16T07:12:50;-10.30;99.90
34279;DHT22;20538;51.528;9.942;2022-12-16T07:15:34;-10.30;99.90
34279;DHT22;20538;51.528;9.942;2022-12-16T07:18:18;-10.20;99.90
34279;DHT22;20538;51.528;9.942;2022-12-16T07:21:02;-10.40;99.90
34279;DHT22;20538;51.528;9.942;2022-12-16T07:23:46;-10.30;99.90
34279;DHT22;20538;51.528;9.942;2022-12-16T07:26:30;-10.40;99.90
34279;DHT22;20538;51.528;9.942;2022-12-16T07:29:14;-10.40;99.90
34279;DHT22;20538;51.528;9.942;2022-12-16T07:31:58;-10.40;99.90
34279;DHT22;20538;51.528;9.942;2022-12-16T07:34:43;-10.40;99.90
34279;DHT22;20538;51.528;9.942;2022-12-16T07:37:27;-10.40;99.90
34279;DHT22;20538;51.528;9.942;2022-12-16T07:40:11;-10.30;99.90
34279;DHT22;20538;51.528;9.942;2022-12-16T07:42:55;-10.40;99.90
34279;DHT22;20538;51.528;9.942;2022-12-16T07:45:53;-10.40;99.90
34279;DHT22;20538;51.528;9.942;2022-12-16T07:48:38;-10.30;99.90
34279;DHT22;20538;51.528;9.942;2022-12-16T07:51:22;-10.20;99.90
34279;DHT22;20538;51.528;9.942;2022-12-16T07:54:06;-10.30;99.90
34279;DHT22;20538;51.528;9.942;2022-12-16T07:56:50;-10.20;99.90
34279;DHT22;20538;51.528;9.942;2022-12-16T07:59:34;-10.10;99.90
34279;DHT22;20538;51.528;9.942;2022-12-16T08:02:18;-10.20;99.90
34279;DHT22;20538;51.528;9.942;2022-12-16T08:05:02;-10.10;99.90
34279;DHT22;20538;51.528;9.942;2022-12-16T08:07:46;-10.20;99.90
34279;DHT22;20538;51.528;9.942;2022-12-16T08:10:30;-10.20;99.90
34279;DHT22;20538;51.528;9.942;2022-12-16T08:13:14;-10.30;99.90
34279;DHT22;20538;51.528;9.942;2022-12-16T08:15:58;-10.20;99.90
34279;DHT22;20538;51.528;9.942;2022-12-16T08:18:42;-10.20;99.90
34279;DHT22;20538;51.528;9.942;2022-12-16T08:21:27;-10.10;99.90
34279;DHT22;20538;51.528;9.942;2022-12-16T08:24:11;-10.00;99.90
34279;DHT22;20538;51.528;9.942;2022-12-16T08:26:55;-9.90;99.90
34279;DHT22;20538;51.528;9.942;2022-12-16T08:29:39;-9.90;99.90
34279;DHT22;20538;51.528;9.942;2022-12-16T08:32:23;-9.80;99.90
34279;DHT22;20538;51.528;9.942;2022-12-16T08:35:07;-9.80;99.90
34279;DHT22;20538;51.528;9.942;2022-12-16T08:37:54;-9.70;99.90
34279;DHT22;20538;51.528;9.942;2022-12-16T08:40:54;-9.70;99.90
34279;DHT22;20538;51.528;9.942;2022-12-16T08:43:38;-9.50;99.90
34279;DHT22;20538;51.528;9.942;2022-12-16T08:46:23;-9.40;99.90
34279;DHT22;20538;51.528;9.942;2022-12-16T08:49:07;-9.20;99.90
34279;DHT22;20538;51.528;9.942;2022-12-16T08:51:51;-8.80;99.90
34279;DHT22;20538;51.528;9.942;2022-12-16T08:54:35;-8.80;99.90
34279;DHT22;20538;51.528;9.942;2022-12-16T08:57:19;-8.50;99.90
34279;DHT22;20538;51.528;9.942;2022-12-16T09:00:05;-8.60;99.90
34279;DHT22;20538;51.528;9.942;2022-12-16T09:02:58;-8.80;99.90
34279;DHT22;20538;51.528;9.942;2022-12-16T09:05:43;-8.90;99.90
34279;DHT22;20538;51.528;9.942;2022-12-16T09:08:28;-8.80;99.90
34279;DHT22;20538;51.528;9.942;2022-12-16T09:11:13;-8.80;99.90
34279;DHT22;20538;51.528;9.942;2022-12-16T09:13:57;-8.70;99.90
34279;DHT22;20538;51.528;9.942;2022-12-16T09:16:41;-8.70;99.90
34279;DHT22;20538;51.528;9.942;2022-12-16T09:19:25;-8.60;99.90
34279;DHT22;20538;51.528;9.942;2022-12-16T09:22:09;-8.60;99.90
34279;DHT22;20538;51.528;9.942;2022-12-16T09:24:53;-8.60;99.90
34279;DHT22;20538;51.528;9.942;2022-12-16T09:27:37;-8.50;99.90
34279;DHT22;20538;51.528;9.942;2022-12-16T09:30:21;-8.50;99.90
34279;DHT22;20538;51.528;9.942;2022-12-16T09:33:06;-8.40;99.90
34279;DHT22;20538;51.528;9.942;2022-12-16T09:35:50;-8.30;99.90
34279;DHT22;20538;51.528;9.942;2022-12-16T09:38:34;-8.10;99.90
34279;DHT22;20538;51.528;9.942;2022-12-16T09:50:22;-7.70;99.90
34279;DHT22;20538;51.528;9.942;2022-12-16T09:53:11;-7.70;99.90
34279;DHT22;20538;51.528;9.942;2022-12-16T09:55:56;-7.50;99.90
34279;DHT22;20538;51.528;9.942;2022-12-16T09:58:46;-7.40;99.90
34279;DHT22;20538;51.528;9.942;2022-12-16T10:01:34;-7.20;99.90
34279;DHT22;20538;51.528;9.942;2022-12-16T10:04:20;-7.20;99.90
34279;DHT22;20538;51.528;9.942;2022-12-16T10:07:08;-7.10;99.90
34279;DHT22;20538;51.528;9.942;2022-12-16T10:10:15;-6.90;99.90
34279;DHT22;20538;51.528;9.942;2022-12-16T10:13:36;-6.80;99.90
34279;DHT22;20538;51.528;9.942;2022-12-16T10:16:43;-6.60;99.90
34279;DHT22;20538;51.528;9.942;2022-12-16T10:23:15;-6.40;99.90
34279;DHT22;20538;51.528;9.942;2022-12-16T10:26:12;-6.30;99.90
34279;DHT22;20538;51.528;9.942;2022-12-16T10:29:19;-6.20;99.90
34279;DHT22;20538;51.528;9.942;2022-12-16T10:32:31;-6.10;99.90
34279;DHT22;20538;51.528;9.942;2022-12-16T10:35:35;-6.10;99.90
34279;DHT22;20538;51.528;9.942;2022-12-16T10:41:47;-6.00;99.90
34279;DHT22;20538;51.528;9.942;2022-12-16T10:47:19;-5.90;99.90
34279;DHT22;20538;51.528;9.942;2022-12-16T10:50:04;-5.90;99.90
34279;DHT22;20538;51.528;9.942;2022-12-16T10:53:23;-5.90;99.90
34279;DHT22;20538;51.528;9.942;2022-12-16T10:56:50;-5.80;99.90
34279;DHT22;20538;51.528;9.942;2022-12-16T10:59:38;-5.90;99.90
34279;DHT22;20538;51.528;9.942;2022-12-16T11:02:25;-5.80;99.90
34279;DHT22;20538;51.528;9.942;2022-12-16T11:05:33;-5.80;99.90
34279;DHT22;20538;51.528;9.942;2022-12-16T11:08:29;-5.70;99.90
34279;DHT22;20538;51.528;9.942;2022-12-16T11:11:23;-5.70;99.90
34279;DHT22;20538;51.528;9.942;2022-12-16T11:14:29;-5.60;99.90
34279;DHT22;20538;51.528;9.942;2022-12-16T11:17:23;-5.60;99.90
34279;DHT22;20538;51.528;9.942;2022-12-16T11:20:23;-5.60;99.90
34279;DHT22;20538;51.528;9.942;2022-12-16T11:23:18;-5.50;99.90
34279;DHT22;20538;51.528;9.942;2022-12-16T11:26:22;-5.50;99.90
34279;DHT22;20538;51.528;9.942;2022-12-16T11:29:15;-5.40;99.90
34279;DHT22;20538;51.528;9.942;2022-12-16T11:32:05;-5.40;99.90
34279;DHT22;20538;51.528;9.942;2022-12-16T11:34:54;-5.40;99.90
34279;DHT22;20538;51.528;9.942;2022-12-16T11:37:40;-5.30;99.90
34279;DHT22;20538;51.528;9.942;2022-12-16T11:40:25;-5.30;99.90
34279;DHT22;20538;51.528;9.942;2022-12-16T11:43:11;-5.20;99.90
34279;DHT22;20538;51.528;9.942;2022-12-16T11:45:59;-5.10;99.90
34279;DHT22;20538;51.528;9.942;2022-12-16T11:48:56;-5.00;99.90
34279;DHT22;20538;51.528;9.942;2022-12-16T11:51:56;-5.00;99.90
34279;DHT22;20538;51.528;9.942;2022-12-16T11:55:23;-4.90;99.90
34279;DHT22;20538;51.528;9.942;2022-12-16T12:00:58;-4.90;99.90
34279;DHT22;20538;51.528;9.942;2022-12-16T12:03:45;-4.80;99.90
34279;DHT22;20538;51.528;9.942;2022-12-16T12:09:53;-4.70;99.90
34279;DHT22;20538;51.528;9.942;2022-12-16T12:19:20;-4.50;99.90
34279;DHT22;20538;51.528;9.942;2022-12-16T12:22:26;-4.50;99.90
34279;DHT22;20538;51.528;9.942;2022-12-16T12:28:20;-4.40;99.90
34279;DHT22;20538;51.528;9.942;2022-12-16T12:34:19;-4.30;99.90
34279;DHT22;20538;51.528;9.942;2022-12-16T12:37:50;-4.30;99.90
34279;DHT22;20538;51.528;9.942;2022-12-16T12:41:00;-4.40;99.90
34279;DHT22;20538;51.528;9.942;2022-12-16T12:43:57;-4.40;99.90
34279;DHT22;20538;51.528;9.942;2022-12-16T12:46:56;-4.30;99.90
34279;DHT22;20538;51.528;9.942;2022-12-16T12:50:02;-4.30;99.90
34279;DHT22;20538;51.528;9.942;2022-12-16T12:55:46;-4.40;99.90
34279;DHT22;20538;51.528;9.942;2022-12-16T12:58:37;-4.30;99.90
34279;DHT22;20538;51.528;9.942;2022-12-16T13:01:25;-4.30;99.90
34279;DHT22;20538;51.528;9.942;2022-12-16T13:04:16;-4.30;99.90
34279;DHT22;20538;51.528;9.942;2022-12-16T13:07:01;-4.30;99.90
34279;DHT22;20538;51.528;9.942;2022-12-16T13:10:51;-4.30;99.90
34279;DHT22;20538;51.528;9.942;2022-12-16T13:16:01;-4.20;99.90
34279;DHT22;20538;51.528;9.942;2022-12-16T13:18:46;-4.20;99.90
34279;DHT22;20538;51.528;9.942;2022-12-16T13:24:38;-4.20;99.90
34279;DHT22;20538;51.528;9.942;2022-12-16T13:27:23;-4.10;99.90
34279;DHT22;20538;51.528;9.942;2022-12-16T13:33:05;-4.20;99.90
34279;DHT22;20538;51.528;9.942;2022-12-16T13:35:57;-4.20;99.90
34279;DHT22;20538;51.528;9.942;2022-12-16T13:38:53;-4.10;99.90
34279;DHT22;20538;51.528;9.942;2022-12-16T13:47:33;-4.10;99.90
34279;DHT22;20538;51.528;9.942;2022-12-16T13:53:19;-4.10;99.90
34279;DHT22;20538;51.528;9.942;2022-12-16T13:56:03;-4.10;99.90
34279;DHT22;20538;51.528;9.942;2022-12-16T13:58:50;-4.20;99.90
34279;DHT22;20538;51.528;9.942;2022-12-16T14:04:35;-4.20;99.90
34279;DHT22;20538;51.528;9.942;2022-12-16T14:07:22;-4.20;99.90
34279;DHT22;20538;51.528;9.942;2022-12-16T14:10:26;-4.20;99.90
34279;DHT22;20538;51.528;9.942;2022-12-16T14:23:27;-4.30;99.90
34279;DHT22;20538;51.528;9.942;2022-12-16T14:26:13;-4.40;99.90
34279;DHT22;20538;51.528;9.942;2022-12-16T14:28:59;-4.40;99.90
34279;DHT22;20538;51.528;9.942;2022-12-16T14:31:43;-4.40;99.90
34279;DHT22;20538;51.528;9.942;2022-12-16T14:34:33;-4.40;99.90
34279;DHT22;20538;51.528;9.942;2022-12-16T14:37:36;-4.40;99.90
34279;DHT22;20538;51.528;9.942;2022-12-16T14:40:24;-4.50;99.90
34279;DHT22;20538;51.528;9.942;2022-12-16T14:43:16;-4.60;99.90
34279;DHT22;20538;51.528;9.942;2022-12-16T14:46:01;-4.60;99.90
34279;DHT22;20538;51.528;9.942;2022-12-16T14:48:46;-4.70;99.90
34279;DHT22;20538;51.528;9.942;2022-12-16T14:51:35;-4.70;99.90
34279;DHT22;20538;51.528;9.942;2022-12-16T14:57:22;-4.80;99.90
34279;DHT22;20538;51.528;9.942;2022-12-16T15:02:52;-4.90;99.90
34279;DHT22;20538;51.528;9.942;2022-12-16T15:05:37;-4.90;99.90
34279;DHT22;20538;51.528;9.942;2022-12-16T15:08:23;-4.90;99.90
34279;DHT22;20538;51.528;9.942;2022-12-16T15:11:09;-4.90;99.90
34279;DHT22;20538;51.528;9.942;2022-12-16T15:14:00;-5.00;99.90
34279;DHT22;20538;51.528;9.942;2022-12-16T15:16:46;-5.00;99.90
34279;DHT22;20538;51.528;9.942;2022-12-16T15:19:46;-5.20;99.90
34279;DHT22;20538;51.528;9.942;2022-12-16T15:22:32;-5.20;99.90
34279;DHT22;20538;51.528;9.942;2022-12-16T15:25:18;-5.20;99.90
34279;DHT22;20538;51.528;9.942;2022-12-16T15:28:02;-5.30;99.90
34279;DHT22;20538;51.528;9.942;2022-12-16T15:30:47;-5.30;99.90
34279;DHT22;20538;51.528;9.942;2022-12-16T15:33:36;-5.40;99.90
34279;DHT22;20538;51.528;9.942;2022-12-16T15:36:30;-5.40;99.90
34279;DHT22;20538;51.528;9.942;2022-12-16T15:42:02;-5.50;99.90
34279;DHT22;20538;51.528;9.942;2022-12-16T15:44:49;-5.60;99.90
34279;DHT22;20538;51.528;9.942;2022-12-16T15:47:36;-5.60;99.90
34279;DHT22;20538;51.528;9.942;2022-12-16T15:50:23;-5.70;99.90
34279;DHT22;20538;51.528;9.942;2022-12-16T15:53:31;-5.60;99.90
34279;DHT22;20538;51.528;9.942;2022-12-16T15:56:42;-5.60;99.90
34279;DHT22;20538;51.528;9.942;2022-12-16T15:59:37;-5.70;99.90
34279;DHT22;20538;51.528;9.942;2022-12-16T16:02:34;-5.80;99.90
34279;DHT22;20538;51.528;9.942;2022-12-16T16:05:21;-5.80;99.90
34279;DHT22;20538;51.528;9.942;2022-12-16T16:08:06;-5.90;99.90
34279;DHT22;20538;51.528;9.942;2022-12-16T16:10:51;-5.90;99.90
34279;DHT22;20538;51.528;9.942;2022-12-16T16:13:36;-5.90;99.90
34279;DHT22;20538;51.528;9.942;2022-12-16T16:16:20;-5.90;99.90
34279;DHT22;20538;51.528;9.942;2022-12-16T16:19:15;-5.90;99.90
34279;DHT22;20538;51.528;9.942;2022-12-16T16:22:02;-6.00;99.90
34279;DHT22;20538;51.528;9.942;2022-12-16T16:24:46;-6.00;99.90
34279;DHT22;20538;51.528;9.942;2022-12-16T16:27:31;-6.00;99.90
34279;DHT22;20538;51.528;9.942;2022-12-16T16:30:15;-6.10;99.90
34279;DHT22;20538;51.528;9.942;2022-12-16T16:32:59;-6.10;99.90
34279;DHT22;20538;51.528;9.942;2022-12-16T16:35:44;-6.20;99.90
34279;DHT22;20538;51.528;9.942;2022-12-16T16:38:28;-6.20;99.90
34279;DHT22;20538;51.528;9.942;2022-12-16T16:41:15;-6.20;99.90
34279;DHT22;20538;51.528;9.942;2022-12-16T16:44:00;-6.20;99.90
34279;DHT22;20538;51.528;9.942;2022-12-16T16:46:45;-6.30;99.90
34279;DHT22;20538;51.528;9.942;2022-12-16T16:52:16;-6.30;99.90
34279;DHT22;20538;51.528;9.942;2022-12-16T16:55:01;-6.30;99.90
34279;DHT22;20538;51.528;9.942;2022-12-16T16:57:45;-6.30;99.90
34279;DHT22;20538;51.528;9.942;2022-12-16T17:00:29;-6.30;99.90
34279;DHT22;20538;51.528;9.942;2022-12-16T17:03:14;-6.40;99.90
34279;DHT22;20538;51.528;9.942;2022-12-16T17:05:58;-6.40;99.90
34279;DHT22;20538;51.528;9.942;2022-12-16T17:08:42;-6.40;99.90
34279;DHT22;20538;51.528;9.942;2022-12-16T17:11:27;-6.40;99.90
34279;DHT22;20538;51.528;9.942;2022-12-16T17:14:13;-6.40;99.90
34279;DHT22;20538;51.528;9.942;2022-12-16T17:16:57;-6.50;99.90
34279;DHT22;20538;51.528;9.942;2022-12-16T17:19:41;-6.50;99.90
34279;DHT22;20538;51.528;9.942;2022-12-16T17:22:25;-6.60;99.90
34279;DHT22;20538;51.528;9.942;2022-12-16T17:25:10;-6.50;99.90
34279;DHT22;20538;51.528;9.942;2022-12-16T17:27:54;-6.60;99.90
34279;DHT22;20538;51.528;9.942;2022-12-16T17:30:39;-6.70;99.90
34279;DHT22;20538;51.528;9.942;2022-12-16T17:33:23;-6.80;99.90
34279;DHT22;20538;51.528;9.942;2022-12-16T17:36:11;-6.80;99.90
34279;DHT22;20538;51.528;9.942;2022-12-16T17:38:56;-6.80;99.90
34279;DHT22;20538;51.528;9.942;2022-12-16T17:41:42;-6.90;99.90
34279;DHT22;20538;51.528;9.942;2022-12-16T17:44:26;-7.00;99.90
34279;DHT22;20538;51.528;9.942;2022-12-16T17:47:11;-7.00;99.90
34279;DHT22;20538;51.528;9.942;2022-12-16T17:49:55;-7.10;99.90
34279;DHT22;20538;51.528;9.942;2022-12-16T17:52:39;-7.10;99.90
34279;DHT22;20538;51.528;9.942;2022-12-16T17:55:23;-7.00;99.90
34279;DHT22;20538;51.528;9.942;2022-12-16T17:58:07;-7.00;99.90
34279;DHT22;20538;51.528;9.942;2022-12-16T18:00:51;-7.00;99.90
34279;DHT22;20538;51.528;9.942;2022-12-16T18:03:35;-7.00;99.90
34279;DHT22;20538;51.528;9.942;2022-12-16T18:06:19;-7.00;99.90
34279;DHT22;20538;51.528;9.942;2022-12-16T18:09:03;-7.00;99.90
34279;DHT22;20538;51.528;9.942;2022-12-16T18:11:48;-7.00;99.90
34279;DHT22;20538;51.528;9.942;2022-12-16T18:14:32;-7.20;99.90
34279;DHT22;20538;51.528;9.942;2022-12-16T18:17:16;-7.10;99.90
34279;DHT22;20538;51.528;9.942;2022-12-16T18:20:00;-7.20;99.90
34279;DHT22;20538;51.528;9.942;2022-12-16T18:22:44;-7.10;99.90
34279;DHT22;20538;51.528;9.942;2022-12-16T18:25:28;-7.20;99.90
34279;DHT22;20538;51.528;9.942;2022-12-16T18:28:12;-7.20;99.90
34279;DHT22;20538;51.528;9.942;2022-12-16T18:30:56;-7.20;99.90
34279;DHT22;20538;51.528;9.942;2022-12-16T18:33:40;-7.30;99.90
34279;DHT22;20538;51.528;9.942;2022-12-16T18:36:24;-7.30;99.90
34279;DHT22;20538;51.528;9.942;2022-12-16T18:39:08;-7.40;99.90
34279;DHT22;20538;51.528;9.942;2022-12-16T18:41:52;-7.40;99.90
34279;DHT22;20538;51.528;9.942;2022-12-16T18:44:36;-7.50;99.90
34279;DHT22;20538;51.528;9.942;2022-12-16T18:47:20;-7.50;99.90
34279;DHT22;20538;51.528;9.942;2022-12-16T18:50:05;-7.50;99.90
34279;DHT22;20538;51.528;9.942;2022-12-16T18:52:49;-7.40;99.90
34279;DHT22;20538;51.528;9.942;2022-12-16T18:55:34;-7.50;99.90
34279;DHT22;20538;51.528;9.942;2022-12-16T18:58:18;-7.50;99.90